sensor_id;sensor_type;location;lat;lon;timestamp;temperature;humidity
23395;DHT22;11870;53.084;18.206;2022-12-29T00:00:06;6.90;99.90
23395;DHT22;11870;53.084;18.206;2022-12-29T00:02:33;6.80;99.90
23395;DHT22;11870;53.084;18.206;2022-12-29T00:04:59;6.70;99.90
23395;DHT22;11870;53.084;18.206;2022-12-29T00:07:25;6.70;99.90
23395;DHT22;11870;53.084;18.206;2022-12-29T00:09:51;6.70;99.90
23395;DHT22;11870;53.084;18.206;2022-12-29T00:12:17;6.60;99.90
23395;DHT22;11870;53.084;18.206;2022-12-29T00:14:43;6.60;99.90
23395;DHT22;11870;53.084;18.206;2022-12-29T00:17:27;6.50;99.90
23395;DHT22;11870;53.084;18.206;2022-12-29T00:19:53;6.50;99.90
23395;DHT22;11870;53.084;18.206;2022-12-29T00:22:45;6.50;99.90
23395;DHT22;11870;53.084;18.206;2022-12-29T00:25:30;6.40;99.90
23395;DHT22;11870;53.084;18.206;2022-12-29T00:28:15;6.40;99.90
23395;DHT22;11870;53.084;18.206;2022-12-29T00:31:00;6.40;99.90
23395;DHT22;11870;53.084;18.206;2022-12-29T00:33:45;6.40;99.90
23395;DHT22;11870;53.084;18.206;2022-12-29T00:36:35;6.50;99.90
23395;DHT22;11870;53.084;18.206;2022-12-29T00:39:10;6.50;99.90
23395;DHT22;11870;53.084;18.206;2022-12-29T00:41:55;6.50;99.90
23395;DHT22;11870;53.084;18.206;2022-12-29T00:44:39;6.50;99.90
23395;DHT22;11870;53.084;18.206;2022-12-29T00:47:05;6.50;99.90
23395;DHT22;11870;53.084;18.206;2022-12-29T00:49:32;6.40;99.90
23395;DHT22;11870;53.084;18.206;2022-12-29T00:54:26;6.40;99.90
23395;DHT22;11870;53.084;18.206;2022-12-29T00:56:53;6.50;99.90
23395;DHT22;11870;53.084;18.206;2022-12-29T00:59:19;6.50;99.90
23395;DHT22;11870;53.084;18.206;2022-12-29T01:01:46;6.40;99.90
23395;DHT22;11870;53.084;18.206;2022-12-29T01:04:13;6.40;99.90
23395;DHT22;11870;53.084;18.206;2022-12-29T01:06:40;6.40;99.90
23395;DHT22;11870;53.084;18.206;2022-12-29T01:09:07;6.40;99.90
23395;DHT22;11870;53.084;18.206;2022-12-29T01:11:52;6.50;99.90
23395;DHT22;11870;53.084;18.206;2022-12-29T01:14:18;6.40;99.90
23395;DHT22;11870;53.084;18.206;2022-12-29T01:16:45;6.50;99.90
23395;DHT22;11870;53.084;18.206;2022-12-29T01:19:12;6.30;99.90
23395;DHT22;11870;53.084;18.206;2022-12-29T01:21:38;6.40;99.90
23395;DHT22;11870;53.084;18.206;2022-12-29T01:24:04;6.40;99.90
23395;DHT22;11870;53.084;18.206;2022-12-29T01:26:30;6.30;99.90
23395;DHT22;11870;53.084;18.206;2022-12-29T01:28:56;6.30;99.90
23395;DHT22;11870;53.084;18.206;2022-12-29T01:31:22;6.30;99.90
23395;DHT22;11870;53.084;18.206;2022-12-29T01:33:48;6.30;99.90
23395;DHT22;11870;53.084;18.206;2022-12-29T01:36:16;6.30;99.90
23395;DHT22;11870;53.084;18.206;2022-12-29T01:38:42;6.30;99.90
23395;DHT22;11870;53.084;18.206;2022-12-29T01:41:10;6.30;99.90
23395;DHT22;11870;53.084;18.206;2022-12-29T01:43:46;6.20;99.90
23395;DHT22;11870;53.084;18.206;2022-12-29T01:49:00;6.20;99.90
23395;DHT22;11870;53.084;18.206;2022-12-29T01:51:29;6.10;99.90
23395;DHT22;11870;53.084;18.206;2022-12-29T01:53:59;6.20;99.90
23395;DHT22;11870;53.084;18.206;2022-12-29T01:56:28;6.20;99.90
23395;DHT22;11870;53.084;18.206;2022-12-29T01:59:03;6.10;99.90
23395;DHT22;11870;53.084;18.206;2022-12-29T02:01:30;6.10;99.90
23395;DHT22;11870;53.084;18.206;2022-12-29T02:03:56;6.10;99.90
23395;DHT22;11870;53.084;18.206;2022-12-29T02:06:27;6.10;99.90
23395;DHT22;11870;53.084;18.206;2022-12-29T02:08:55;6.20;99.90
23395;DHT22;11870;53.084;18.206;2022-12-29T02:11:24;6.20;99.90
23395;DHT22;11870;53.084;18.206;2022-12-29T02:13:51;6.20;99.90
23395;DHT22;11870;53.084;18.206;2022-12-29T02:25:29;6.20;99.90
23395;DHT22;11870;53.084;18.206;2022-12-29T02:36:19;6.20;99.90
23395;DHT22;11870;53.084;18.206;2022-12-29T02:44:26;6.50;99.90
23395;DHT22;11870;53.084;18.206;2022-12-29T02:47:02;6.40;99.90
23395;DHT22;11870;53.084;18.206;2022-12-29T02:49:34;6.40;99.90
23395;DHT22;11870;53.084;18.206;2022-12-29T02:52:09;6.40;99.90
23395;DHT22;11870;53.084;18.206;2022-12-29T02:54:36;6.30;99.90
23395;DHT22;11870;53.084;18.206;2022-12-29T02:57:26;6.30;99.90
23395;DHT22;11870;53.084;18.206;2022-12-29T03:00:12;6.30;99.90
23395;DHT22;11870;53.084;18.206;2022-12-29T03:06:14;6.40;99.90
23395;DHT22;11870;53.084;18.206;2022-12-29T03:08:59;6.40;99.90
23395;DHT22;11870;53.084;18.206;2022-12-29T03:11:33;6.40;99.90
23395;DHT22;11870;53.084;18.206;2022-12-29T03:14:28;6.50;99.90
23395;DHT22;11870;53.084;18.206;2022-12-29T03:17:27;6.50;99.90
23395;DHT22;11870;53.084;18.206;2022-12-29T03:20:01;6.50;99.90
23395;DHT22;11870;53.084;18.206;2022-12-29T03:22:32;6.50;99.90
23395;DHT22;11870;53.084;18.206;2022-12-29T03:25:33;6.60;99.90
23395;DHT22;11870;53.084;18.206;2022-12-29T03:28:05;6.60;99.90
23395;DHT22;11870;53.084;18.206;2022-12-29T03:30:34;6.60;99.90
23395;DHT22;11870;53.084;18.206;2022-12-29T03:33:04;6.60;99.90
23395;DHT22;11870;53.084;18.206;2022-12-29T03:35:34;6.50;99.90
23395;DHT22;11870;53.084;18.206;2022-12-29T03:40:28;6.50;99.90
23395;DHT22;11870;53.084;18.206;2022-12-29T03:42:55;6.50;99.90
23395;DHT22;11870;53.084;18.206;2022-12-29T03:45:21;6.50;99.90
23395;DHT22;11870;53.084;18.206;2022-12-29T03:47:47;6.50;99.90
23395;DHT22;11870;53.084;18.206;2022-12-29T03:50:14;6.50;99.90
23395;DHT22;11870;53.084;18.206;2022-12-29T03:52:40;6.50;99.90
23395;DHT22;11870;53.084;18.206;2022-12-29T03:55:06;6.50;99.90
23395;DHT22;11870;53.084;18.206;2022-12-29T03:57:32;6.40;99.90
23395;DHT22;11870;53.084;18.206;2022-12-29T03:59:58;6.40;99.90
23395;DHT22;11870;53.084;18.206;2022-12-29T04:02:24;6.40;99.90
23395;DHT22;11870;53.084;18.206;2022-12-29T04:04:50;6.40;99.90
23395;DHT22;11870;53.084;18.206;2022-12-29T04:07:16;6.40;99.90
23395;DHT22;11870;53.084;18.206;2022-12-29T04:09:41;6.40;99.90
23395;DHT22;11870;53.084;18.206;2022-12-29T04:12:07;6.40;99.90
23395;DHT22;11870;53.084;18.206;2022-12-29T04:14:33;6.40;99.90
23395;DHT22;11870;53.084;18.206;2022-12-29T04:16:59;6.40;99.90
23395;DHT22;11870;53.084;18.206;2022-12-29T04:19:25;6.40;99.90
23395;DHT22;11870;53.084;18.206;2022-12-29T04:21:51;6.40;99.90
23395;DHT22;11870;53.084;18.206;2022-12-29T04:24:17;6.40;99.90
23395;DHT22;11870;53.084;18.206;2022-12-29T04:26:43;6.40;99.90
23395;DHT22;11870;53.084;18.206;2022-12-29T04:29:08;6.40;99.90
23395;DHT22;11870;53.084;18.206;2022-12-29T04:31:34;6.40;99.90
23395;DHT22;11870;53.084;18.206;2022-12-29T04:34:00;6.40;99.90
23395;DHT22;11870;53.084;18.206;2022-12-29T04:36:27;6.40;99.90
23395;DHT22;11870;53.084;18.206;2022-12-29T04:38:53;6.40;99.90
23395;DHT22;11870;53.084;18.206;2022-12-29T04:41:19;6.40;99.90
23395;DHT22;11870;53.084;18.206;2022-12-29T04:43:45;6.50;99.90
23395;DHT22;11870;53.084;18.206;2022-12-29T04:46:11;6.50;99.90
23395;DHT22;11870;53.084;18.206;2022-12-29T04:48:36;6.50;99.90
23395;DHT22;11870;53.084;18.206;2022-12-29T04:51:03;6.50;99.90
23395;DHT22;11870;53.084;18.206;2022-12-29T04:53:28;6.50;99.90
23395;DHT22;11870;53.084;18.206;2022-12-29T04:55:55;6.50;99.90
23395;DHT22;11870;53.084;18.206;2022-12-29T04:58:21;6.50;99.90
23395;DHT22;11870;53.084;18.206;2022-12-29T05:00:47;6.50;99.90
23395;DHT22;11870;53.084;18.206;2022-12-29T05:03:13;6.50;99.90
23395;DHT22;11870;53.084;18.206;2022-12-29T05:05:39;6.50;99.90
23395;DHT22;11870;53.084;18.206;2022-12-29T05:08:05;6.50;99.90
23395;DHT22;11870;53.084;18.206;2022-12-29T05:10:31;6.50;99.90
23395;DHT22;11870;53.084;18.206;2022-12-29T05:12:57;6.50;99.90
23395;DHT22;11870;53.084;18.206;2022-12-29T05:15:23;6.50;99.90
23395;DHT22;11870;53.084;18.206;2022-12-29T05:17:49;6.60;99.90
23395;DHT22;11870;53.084;18.206;2022-12-29T05:20:15;6.50;99.90
23395;DHT22;11870;53.084;18.206;2022-12-29T05:22:41;6.50;99.90
23395;DHT22;11870;53.084;18.206;2022-12-29T05:25:08;6.50;99.90
23395;DHT22;11870;53.084;18.206;2022-12-29T05:27:34;6.50;99.90
23395;DHT22;11870;53.084;18.206;2022-12-29T05:30:00;6.50;99.90
23395;DHT22;11870;53.084;18.206;2022-12-29T05:32:26;6.50;99.90
23395;DHT22;11870;53.084;18.206;2022-12-29T05:34:52;6.50;99.90
23395;DHT22;11870;53.084;18.206;2022-12-29T05:37:17;6.60;99.90
23395;DHT22;11870;53.084;18.206;2022-12-29T05:39:44;6.60;99.90
23395;DHT22;11870;53.084;18.206;2022-12-29T05:42:09;6.70;99.90
23395;DHT22;11870;53.084;18.206;2022-12-29T05:44:35;6.70;99.90
23395;DHT22;11870;53.084;18.206;2022-12-29T05:47:01;6.70;99.90
23395;DHT22;11870;53.084;18.206;2022-12-29T05:49:27;6.70;99.90
23395;DHT22;11870;53.084;18.206;2022-12-29T05:51:53;6.80;99.90
23395;DHT22;11870;53.084;18.206;2022-12-29T05:54:19;6.80;99.90
23395;DHT22;11870;53.084;18.206;2022-12-29T05:56:45;6.80;99.90
23395;DHT22;11870;53.084;18.206;2022-12-29T05:59:11;6.80;99.90
23395;DHT22;11870;53.084;18.206;2022-12-29T06:01:37;6.70;99.90
23395;DHT22;11870;53.084;18.206;2022-12-29T06:04:03;6.80;99.90
23395;DHT22;11870;53.084;18.206;2022-12-29T06:06:28;6.80;99.90
23395;DHT22;11870;53.084;18.206;2022-12-29T06:08:55;6.80;99.90
23395;DHT22;11870;53.084;18.206;2022-12-29T06:11:20;6.90;99.90
23395;DHT22;11870;53.084;18.206;2022-12-29T06:13:46;6.90;99.90
23395;DHT22;11870;53.084;18.206;2022-12-29T06:16:12;6.80;99.90
23395;DHT22;11870;53.084;18.206;2022-12-29T06:18:38;6.80;99.90
23395;DHT22;11870;53.084;18.206;2022-12-29T06:21:05;6.80;99.90
23395;DHT22;11870;53.084;18.206;2022-12-29T06:23:31;6.80;99.90
23395;DHT22;11870;53.084;18.206;2022-12-29T06:25:57;6.80;99.90
23395;DHT22;11870;53.084;18.206;2022-12-29T06:28:23;6.80;99.90
23395;DHT22;11870;53.084;18.206;2022-12-29T06:30:49;6.90;99.90
23395;DHT22;11870;53.084;18.206;2022-12-29T06:33:15;7.00;99.90
23395;DHT22;11870;53.084;18.206;2022-12-29T06:35:45;7.00;99.90
23395;DHT22;11870;53.084;18.206;2022-12-29T06:38:11;7.00;99.90
23395;DHT22;11870;53.084;18.206;2022-12-29T06:40:37;6.90;99.90
23395;DHT22;11870;53.084;18.206;2022-12-29T06:43:03;7.00;99.90
23395;DHT22;11870;53.084;18.206;2022-12-29T06:45:29;7.00;99.90
23395;DHT22;11870;53.084;18.206;2022-12-29T06:47:55;6.90;99.90
23395;DHT22;11870;53.084;18.206;2022-12-29T06:50:21;6.90;99.90
23395;DHT22;11870;53.084;18.206;2022-12-29T06:52:47;6.90;99.90
23395;DHT22;11870;53.084;18.206;2022-12-29T06:55:13;6.90;99.90
23395;DHT22;11870;53.084;18.206;2022-12-29T06:57:39;6.90;99.90
23395;DHT22;11870;53.084;18.206;2022-12-29T07:00:05;6.90;99.90
23395;DHT22;11870;53.084;18.206;2022-12-29T07:02:31;6.90;99.90
23395;DHT22;11870;53.084;18.206;2022-12-29T07:04:57;7.00;99.90
23395;DHT22;11870;53.084;18.206;2022-12-29T07:07:23;7.10;99.90
23395;DHT22;11870;53.084;18.206;2022-12-29T07:09:49;7.10;99.90
23395;DHT22;11870;53.084;18.206;2022-12-29T07:12:15;7.10;99.90
23395;DHT22;11870;53.084;18.206;2022-12-29T07:14:41;7.20;99.90
23395;DHT22;11870;53.084;18.206;2022-12-29T07:17:07;7.20;99.90
23395;DHT22;11870;53.084;18.206;2022-12-29T07:19:33;7.30;99.90
23395;DHT22;11870;53.084;18.206;2022-12-29T07:21:59;7.40;99.90
23395;DHT22;11870;53.084;18.206;2022-12-29T07:24:25;7.40;99.90
23395;DHT22;11870;53.084;18.206;2022-12-29T07:26:51;7.40;99.90
23395;DHT22;11870;53.084;18.206;2022-12-29T07:29:18;7.50;99.90
23395;DHT22;11870;53.084;18.206;2022-12-29T07:31:44;7.50;99.90
23395;DHT22;11870;53.084;18.206;2022-12-29T07:34:10;7.40;99.90
23395;DHT22;11870;53.084;18.206;2022-12-29T07:36:36;7.60;99.90
23395;DHT22;11870;53.084;18.206;2022-12-29T07:39:03;7.60;99.90
23395;DHT22;11870;53.084;18.206;2022-12-29T07:41:29;8.40;99.90
23395;DHT22;11870;53.084;18.206;2022-12-29T07:43:55;8.50;99.90
23395;DHT22;11870;53.084;18.206;2022-12-29T07:46:21;7.70;99.90
23395;DHT22;11870;53.084;18.206;2022-12-29T07:48:47;7.80;99.90
23395;DHT22;11870;53.084;18.206;2022-12-29T07:51:13;7.80;99.90
23395;DHT22;11870;53.084;18.206;2022-12-29T07:53:39;7.90;99.90
23395;DHT22;11870;53.084;18.206;2022-12-29T07:56:05;7.90;99.90
23395;DHT22;11870;53.084;18.206;2022-12-29T07:58:32;8.00;99.90
23395;DHT22;11870;53.084;18.206;2022-12-29T08:00:58;7.90;99.90
23395;DHT22;11870;53.084;18.206;2022-12-29T08:03:24;7.90;99.90
23395;DHT22;11870;53.084;18.206;2022-12-29T08:05:51;7.70;99.90
23395;DHT22;11870;53.084;18.206;2022-12-29T08:08:17;7.70;99.90
23395;DHT22;11870;53.084;18.206;2022-12-29T08:10:43;7.70;99.90
23395;DHT22;11870;53.084;18.206;2022-12-29T08:13:09;7.60;99.90
23395;DHT22;11870;53.084;18.206;2022-12-29T08:15:37;7.60;99.90
23395;DHT22;11870;53.084;18.206;2022-12-29T08:18:03;7.60;99.90
23395;DHT22;11870;53.084;18.206;2022-12-29T08:20:29;7.80;99.90
23395;DHT22;11870;53.084;18.206;2022-12-29T08:22:55;7.90;99.90
23395;DHT22;11870;53.084;18.206;2022-12-29T08:25:21;8.00;99.90
23395;DHT22;11870;53.084;18.206;2022-12-29T08:27:47;8.10;99.90
23395;DHT22;11870;53.084;18.206;2022-12-29T08:30:13;8.30;99.90
23395;DHT22;11870;53.084;18.206;2022-12-29T08:32:39;8.40;99.90
23395;DHT22;11870;53.084;18.206;2022-12-29T08:35:05;8.60;99.90
23395;DHT22;11870;53.084;18.206;2022-12-29T08:37:32;8.80;99.90
23395;DHT22;11870;53.084;18.206;2022-12-29T08:39:59;8.80;99.90
23395;DHT22;11870;53.084;18.206;2022-12-29T08:42:30;8.90;99.90
23395;DHT22;11870;53.084;18.206;2022-12-29T08:44:58;8.90;99.90
23395;DHT22;11870;53.084;18.206;2022-12-29T08:47:24;9.00;99.90
23395;DHT22;11870;53.084;18.206;2022-12-29T08:49:51;9.00;99.90
23395;DHT22;11870;53.084;18.206;2022-12-29T08:52:17;9.00;99.90
23395;DHT22;11870;53.084;18.206;2022-12-29T08:54:43;9.10;99.90
23395;DHT22;11870;53.084;18.206;2022-12-29T08:57:09;9.10;99.90
23395;DHT22;11870;53.084;18.206;2022-12-29T08:59:35;9.20;99.90
23395;DHT22;11870;53.084;18.206;2022-12-29T09:02:01;9.30;99.90
23395;DHT22;11870;53.084;18.206;2022-12-29T09:04:27;9.40;99.90
23395;DHT22;11870;53.084;18.206;2022-12-29T09:06:53;10.50;99.90
23395;DHT22;11870;53.084;18.206;2022-12-29T09:09:20;9.50;99.90
23395;DHT22;11870;53.084;18.206;2022-12-29T09:11:46;9.50;99.90
23395;DHT22;11870;53.084;18.206;2022-12-29T09:14:12;9.60;99.90
23395;DHT22;11870;53.084;18.206;2022-12-29T09:16:39;9.50;99.90
23395;DHT22;11870;53.084;18.206;2022-12-29T09:19:24;9.50;99.90
23395;DHT22;11870;53.084;18.206;2022-12-29T09:21:50;9.30;99.90
23395;DHT22;11870;53.084;18.206;2022-12-29T09:24:15;9.30;99.90
23395;DHT22;11870;53.084;18.206;2022-12-29T09:26:41;9.30;99.90
23395;DHT22;11870;53.084;18.206;2022-12-29T09:29:07;9.30;99.90
23395;DHT22;11870;53.084;18.206;2022-12-29T09:31:33;9.30;99.90
23395;DHT22;11870;53.084;18.206;2022-12-29T09:33:59;9.20;99.90
23395;DHT22;11870;53.084;18.206;2022-12-29T09:36:25;9.20;99.90
23395;DHT22;11870;53.084;18.206;2022-12-29T09:38:53;9.20;99.90
23395;DHT22;11870;53.084;18.206;2022-12-29T09:41:49;9.20;99.90
23395;DHT22;11870;53.084;18.206;2022-12-29T09:44:31;9.20;99.90
23395;DHT22;11870;53.084;18.206;2022-12-29T09:47:03;9.20;99.90
23395;DHT22;11870;53.084;18.206;2022-12-29T09:52:12;9.10;99.90
23395;DHT22;11870;53.084;18.206;2022-12-29T09:54:55;9.10;99.90
23395;DHT22;11870;53.084;18.206;2022-12-29T09:57:26;9.10;99.90
23395;DHT22;11870;53.084;18.206;2022-12-29T10:00:01;9.20;99.90
23395;DHT22;11870;53.084;18.206;2022-12-29T10:02:38;9.60;99.90
23395;DHT22;11870;53.084;18.206;2022-12-29T10:10:43;9.20;99.90
23395;DHT22;11870;53.084;18.206;2022-12-29T10:13:26;9.20;99.90
23395;DHT22;11870;53.084;18.206;2022-12-29T10:18:42;9.40;99.90
23395;DHT22;11870;53.084;18.206;2022-12-29T10:21:22;9.40;99.90
23395;DHT22;11870;53.084;18.206;2022-12-29T10:23:53;9.40;99.90
23395;DHT22;11870;53.084;18.206;2022-12-29T10:26:33;9.50;99.90
23395;DHT22;11870;53.084;18.206;2022-12-29T10:29:08;9.70;99.90
23395;DHT22;11870;53.084;18.206;2022-12-29T10:31:48;10.30;99.90
23395;DHT22;11870;53.084;18.206;2022-12-29T10:34:22;9.90;99.90
23395;DHT22;11870;53.084;18.206;2022-12-29T10:36:57;9.90;99.90
23395;DHT22;11870;53.084;18.206;2022-12-29T10:39:31;9.90;99.90
23395;DHT22;11870;53.084;18.206;2022-12-29T10:42:39;9.90;99.90
23395;DHT22;11870;53.084;18.206;2022-12-29T10:45:13;9.90;99.90
23395;DHT22;11870;53.084;18.206;2022-12-29T10:47:58;9.80;99.90
23395;DHT22;11870;53.084;18.206;2022-12-29T10:50:26;9.80;99.90
23395;DHT22;11870;53.084;18.206;2022-12-29T10:52:54;9.80;99.90
23395;DHT22;11870;53.084;18.206;2022-12-29T10:55:26;9.80;99.90
23395;DHT22;11870;53.084;18.206;2022-12-29T10:57:54;9.90;99.90
23395;DHT22;11870;53.084;18.206;2022-12-29T11:00:23;9.80;99.90
23395;DHT22;11870;53.084;18.206;2022-12-29T11:06:23;9.80;99.90
23395;DHT22;11870;53.084;18.206;2022-12-29T11:08:27;9.90;99.90
23395;DHT22;11870;53.084;18.206;2022-12-29T11:11:00;9.90;99.90
23395;DHT22;11870;53.084;18.206;2022-12-29T11:13:29;10.00;99.90
23395;DHT22;11870;53.084;18.206;2022-12-29T11:15:56;10.30;99.90
23395;DHT22;11870;53.084;18.206;2022-12-29T11:18:32;10.30;99.90
23395;DHT22;11870;53.084;18.206;2022-12-29T11:21:00;10.40;99.90
23395;DHT22;11870;53.084;18.206;2022-12-29T11:23:39;10.60;99.90
23395;DHT22;11870;53.084;18.206;2022-12-29T11:26:32;10.70;99.90
23395;DHT22;11870;53.084;18.206;2022-12-29T11:31:48;10.50;99.90
23395;DHT22;11870;53.084;18.206;2022-12-29T11:34:25;10.50;99.90
23395;DHT22;11870;53.084;18.206;2022-12-29T11:37:02;10.50;99.90
23395;DHT22;11870;53.084;18.206;2022-12-29T11:39:43;10.50;99.90
23395;DHT22;11870;53.084;18.206;2022-12-29T11:42:18;10.50;99.90
23395;DHT22;11870;53.084;18.206;2022-12-29T11:44:47;10.50;99.90
23395;DHT22;11870;53.084;18.206;2022-12-29T11:47:44;10.60;99.90
23395;DHT22;11870;53.084;18.206;2022-12-29T11:50:24;10.40;99.90
23395;DHT22;11870;53.084;18.206;2022-12-29T11:53:05;10.50;99.90
23395;DHT22;11870;53.084;18.206;2022-12-29T11:55:33;10.60;99.90
23395;DHT22;11870;53.084;18.206;2022-12-29T11:58:02;10.80;99.90
23395;DHT22;11870;53.084;18.206;2022-12-29T12:00:32;11.10;99.90
23395;DHT22;11870;53.084;18.206;2022-12-29T12:03:04;11.10;99.90
23395;DHT22;11870;53.084;18.206;2022-12-29T12:05:49;11.00;99.90
23395;DHT22;11870;53.084;18.206;2022-12-29T12:11:34;10.70;99.90
23395;DHT22;11870;53.084;18.206;2022-12-29T12:14:27;10.50;99.90
23395;DHT22;11870;53.084;18.206;2022-12-29T12:16:57;10.30;99.90
23395;DHT22;11870;53.084;18.206;2022-12-29T12:22:23;10.20;99.90
23395;DHT22;11870;53.084;18.206;2022-12-29T12:24:58;10.30;99.90
23395;DHT22;11870;53.084;18.206;2022-12-29T12:27:43;10.30;99.90
23395;DHT22;11870;53.084;18.206;2022-12-29T12:30:17;10.30;99.90
23395;DHT22;11870;53.084;18.206;2022-12-29T12:33:05;10.30;99.90
23395;DHT22;11870;53.084;18.206;2022-12-29T12:38:27;10.30;99.90
23395;DHT22;11870;53.084;18.206;2022-12-29T12:43:49;10.20;99.90
23395;DHT22;11870;53.084;18.206;2022-12-29T12:57:54;10.20;99.90
23395;DHT22;11870;53.084;18.206;2022-12-29T13:00:22;10.10;99.90
23395;DHT22;11870;53.084;18.206;2022-12-29T13:11:09;10.20;99.90
23395;DHT22;11870;53.084;18.206;2022-12-29T13:13:51;10.30;99.90
23395;DHT22;11870;53.084;18.206;2022-12-29T13:21:37;10.40;99.90
23395;DHT22;11870;53.084;18.206;2022-12-29T13:30:18;10.30;99.90
23395;DHT22;11870;53.084;18.206;2022-12-29T13:38:19;10.10;99.90
23395;DHT22;11870;53.084;18.206;2022-12-29T13:40:50;10.10;99.90
23395;DHT22;11870;53.084;18.206;2022-12-29T13:43:19;10.10;99.90
23395;DHT22;11870;53.084;18.206;2022-12-29T13:45:50;10.10;99.90
23395;DHT22;11870;53.084;18.206;2022-12-29T13:48:24;10.10;99.90
23395;DHT22;11870;53.084;18.206;2022-12-29T13:50:57;10.00;99.90
23395;DHT22;11870;53.084;18.206;2022-12-29T13:56:42;9.90;99.90
23395;DHT22;11870;53.084;18.206;2022-12-29T14:02:19;9.80;99.90
23395;DHT22;11870;53.084;18.206;2022-12-29T14:04:58;9.90;99.90
23395;DHT22;11870;53.084;18.206;2022-12-29T14:07:25;9.80;99.90
23395;DHT22;11870;53.084;18.206;2022-12-29T14:09:54;9.70;99.90
23395;DHT22;11870;53.084;18.206;2022-12-29T14:14:46;9.60;99.90
23395;DHT22;11870;53.084;18.206;2022-12-29T14:17:19;9.50;99.90
23395;DHT22;11870;53.084;18.206;2022-12-29T14:19:45;9.50;99.90
23395;DHT22;11870;53.084;18.206;2022-12-29T14:22:12;9.40;99.90
23395;DHT22;11870;53.084;18.206;2022-12-29T14:24:42;10.40;99.90
23395;DHT22;11870;53.084;18.206;2022-12-29T14:34:57;9.30;99.90
23395;DHT22;11870;53.084;18.206;2022-12-29T14:37:32;9.30;99.90
23395;DHT22;11870;53.084;18.206;2022-12-29T14:40:14;10.10;99.90
23395;DHT22;11870;53.084;18.206;2022-12-29T14:42:46;9.20;99.90
23395;DHT22;11870;53.084;18.206;2022-12-29T14:47:44;9.20;99.90
23395;DHT22;11870;53.084;18.206;2022-12-29T14:52:54;9.50;99.90
23395;DHT22;11870;53.084;18.206;2022-12-29T14:58:01;9.60;99.90
23395;DHT22;11870;53.084;18.206;2022-12-29T15:00:31;9.60;99.90
23395;DHT22;11870;53.084;18.206;2022-12-29T15:05:56;9.80;99.90
23395;DHT22;11870;53.084;18.206;2022-12-29T15:08:31;9.90;99.90
23395;DHT22;11870;53.084;18.206;2022-12-29T15:11:05;9.90;99.90
23395;DHT22;11870;53.084;18.206;2022-12-29T15:13:40;10.10;99.90
23395;DHT22;11870;53.084;18.206;2022-12-29T15:16:29;10.10;99.90
23395;DHT22;11870;53.084;18.206;2022-12-29T15:18:57;10.20;99.90
23395;DHT22;11870;53.084;18.206;2022-12-29T15:21:27;10.20;99.90
23395;DHT22;11870;53.084;18.206;2022-12-29T15:23:55;10.20;99.90
23395;DHT22;11870;53.084;18.206;2022-12-29T15:26:21;10.20;99.90
23395;DHT22;11870;53.084;18.206;2022-12-29T15:28:52;10.20;99.90
23395;DHT22;11870;53.084;18.206;2022-12-29T15:31:24;10.20;99.90
23395;DHT22;11870;53.084;18.206;2022-12-29T15:33:54;10.20;99.90
23395;DHT22;11870;53.084;18.206;2022-12-29T15:36:21;11.00;99.90
23395;DHT22;11870;53.084;18.206;2022-12-29T15:38:48;10.20;99.90
23395;DHT22;11870;53.084;18.206;2022-12-29T15:41:37;10.10;99.90
23395;DHT22;11870;53.084;18.206;2022-12-29T15:44:38;10.10;99.90
23395;DHT22;11870;53.084;18.206;2022-12-29T15:47:08;11.30;99.90
23395;DHT22;11870;53.084;18.206;2022-12-29T15:49:37;10.10;99.90
23395;DHT22;11870;53.084;18.206;2022-12-29T15:52:08;10.10;99.90
23395;DHT22;11870;53.084;18.206;2022-12-29T15:54:35;10.00;99.90
23395;DHT22;11870;53.084;18.206;2022-12-29T15:57:01;10.60;99.90
23395;DHT22;11870;53.084;18.206;2022-12-29T15:59:32;10.00;99.90
23395;DHT22;11870;53.084;18.206;2022-12-29T16:02:00;10.40;99.90
23395;DHT22;11870;53.084;18.206;2022-12-29T16:04:30;9.90;99.90
23395;DHT22;11870;53.084;18.206;2022-12-29T16:06:58;9.80;99.90
23395;DHT22;11870;53.084;18.206;2022-12-29T16:09:35;9.80;99.90
23395;DHT22;11870;53.084;18.206;2022-12-29T16:12:17;9.60;99.90
23395;DHT22;11870;53.084;18.206;2022-12-29T16:14:47;9.50;99.90
23395;DHT22;11870;53.084;18.206;2022-12-29T16:17:16;9.50;99.90
23395;DHT22;11870;53.084;18.206;2022-12-29T16:19:54;9.40;99.90
23395;DHT22;11870;53.084;18.206;2022-12-29T16:22:31;9.40;99.90
23395;DHT22;11870;53.084;18.206;2022-12-29T16:25:01;9.20;99.90
23395;DHT22;11870;53.084;18.206;2022-12-29T16:30:12;9.30;99.90
23395;DHT22;11870;53.084;18.206;2022-12-29T16:32:53;8.80;99.90
23395;DHT22;11870;53.084;18.206;2022-12-29T16:38:20;8.60;99.90
23395;DHT22;11870;53.084;18.206;2022-12-29T16:40:57;8.60;99.90
23395;DHT22;11870;53.084;18.206;2022-12-29T16:43:29;8.70;99.90
23395;DHT22;11870;53.084;18.206;2022-12-29T16:48:27;9.90;99.90
23395;DHT22;11870;53.084;18.206;2022-12-29T16:51:38;8.90;99.90
23395;DHT22;11870;53.084;18.206;2022-12-29T16:54:06;9.10;99.90
23395;DHT22;11870;53.084;18.206;2022-12-29T16:56:35;9.20;99.90
23395;DHT22;11870;53.084;18.206;2022-12-29T16:59:08;9.20;99.90
23395;DHT22;11870;53.084;18.206;2022-12-29T17:01:43;9.30;99.90
23395;DHT22;11870;53.084;18.206;2022-12-29T17:04:11;9.20;99.90
23395;DHT22;11870;53.084;18.206;2022-12-29T17:06:38;9.10;99.90
23395;DHT22;11870;53.084;18.206;2022-12-29T17:09:20;9.00;99.90
23395;DHT22;11870;53.084;18.206;2022-12-29T17:11:49;9.00;99.90
23395;DHT22;11870;53.084;18.206;2022-12-29T17:16:57;8.80;99.90
23395;DHT22;11870;53.084;18.206;2022-12-29T17:19:30;8.80;99.90
23395;DHT22;11870;53.084;18.206;2022-12-29T17:21:56;8.70;99.90
23395;DHT22;11870;53.084;18.206;2022-12-29T17:24:22;8.80;99.90
23395;DHT22;11870;53.084;18.206;2022-12-29T17:26:51;8.80;99.90
23395;DHT22;11870;53.084;18.206;2022-12-29T17:29:29;8.80;99.90
23395;DHT22;11870;53.084;18.206;2022-12-29T17:31:55;8.90;99.90
23395;DHT22;11870;53.084;18.206;2022-12-29T17:34:21;8.80;99.90
23395;DHT22;11870;53.084;18.206;2022-12-29T17:36:47;8.80;99.90
23395;DHT22;11870;53.084;18.206;2022-12-29T17:39:13;8.80;99.90
23395;DHT22;11870;53.084;18.206;2022-12-29T17:41:39;8.80;99.90
23395;DHT22;11870;53.084;18.206;2022-12-29T17:44:06;8.80;99.90
23395;DHT22;11870;53.084;18.206;2022-12-29T17:46:33;8.80;99.90
23395;DHT22;11870;53.084;18.206;2022-12-29T17:48:59;8.70;99.90
23395;DHT22;11870;53.084;18.206;2022-12-29T17:51:25;8.70;99.90
23395;DHT22;11870;53.084;18.206;2022-12-29T17:53:51;8.60;99.90
23395;DHT22;11870;53.084;18.206;2022-12-29T17:56:18;9.60;99.90
23395;DHT22;11870;53.084;18.206;2022-12-29T17:58:44;9.30;99.90
23395;DHT22;11870;53.084;18.206;2022-12-29T18:01:11;8.80;99.90
23395;DHT22;11870;53.084;18.206;2022-12-29T18:03:39;8.80;99.90